Almeria, Spain

3:07 PM CEST on September 05, 2015 (GMT +0200)
Almeria, Los Molinos | | Change Station
CLOSE
Current Station
Personal Weather Station
Location: Almería, ANDALUCíA
Elevation: 112 ft
Nearby Weather Stations

Elev 112 ft 36.85 °N, 2.44 °W | Updated 6 seconds ago

Scattered Clouds
Scattered Clouds
85.4 °F
Feels Like 88 °F
N
14.0
Wind Variable Wind from SE
Gusts 15.0 mph

Today
High -- | Low -- °F
--% Chance of Precip.
Yesterday
High -- | Low -- °F
Precip. -- in
7:43 AM 8:32 PM
Waning Gibbous, 49% visible
Pressure 29.98 in
Visibility 6.2 miles
Clouds Scattered Clouds 3500 ft
Heat Index 88 °F
Dew Point 67 °F
Humidity 54%
Rainfall 0.00 in
Snow Depth Not available.
UV 8 out of 12
Pollen Not available.
Air Quality Not available.
Flu Activity Not available.
METAR LEAM 051300Z 07019KT 030V110 9999 SCT035 30/19 Q1015
Pressure 29.98 in
Visibility 6.2 miles
Clouds Scattered Clouds 3500 ft
Heat Index 88 °F
Dew Point 67 °F
Humidity 54%
Rainfall 0.00 in
Snow Depth Not available.
UV 8 out of 12
Pollen Not available.
Air Quality Not available.
Flu Activity Not available.
METAR LEAM 051300Z 07019KT 030V110 9999 SCT035 30/19 Q1015

10-Day Weather Forecast

×

Almanac

Astronomy

Sep. 05, 2015 Rise Set
Actual Time
Civil Twilight
Nautical Twilight
Astronomical Twilight
Moon
Length of Visible Light
Length of Day
Tomorrow will be .
, % of the Moon is Illuminated

Today's Extremes

Country Highs Country Lows

Community

WunderPhotos

Upload Photos

1,852,454 photos uploaded!

WunderBlogs® & News

Nearby

Air Quality

  Air Quality AQ Index Pollutant
Not available.

Snow Depth

Station Depth Elevation

Earthquake Activity

City Distance Mag. Time & Date
Minimum magnitude displayed is 2.5.

Coastal Water Temperatures

Place Temperature

Stations

Nearby Weather Stations

Station Location Temp. Windchill Dew Point Humidity Wind Precip. Elev Updated Type